Time;durP1;ratioP1;P1;durP2;ratioP2;P2;SDS_P1;SDS_P2;PMS_P1;PMS_P2;Temp;Humidity;BMP_temperature;BMP_pressure;BME280_temperature;BME280_humidity;BME280_pressure;Samples;Min_cycle;Max_cycle;Signal;HPM_P1;HPM_P2
2021/09/22 00:02:10;;;;;;;14.53;12.35;;;;;;;9.37;85.71;97203.72;1693934;84;21496;-81
2021/09/22 00:04:36;;;;;;;14.40;12.00;;;;;;;9.36;85.77;97199.02;1682163;83;21089;-81
2021/09/22 00:07:02;;;;;;;14.07;10.80;;;;;;;9.37;85.87;97195.45;1681068;84;21095;-81
2021/09/22 00:09:29;;;;;;;14.45;11.25;;;;;;;9.38;85.73;97191.89;1694019;84;21034;-81
2021/09/22 00:11:54;;;;;;;14.13;11.48;;;;;;;9.39;85.70;97184.92;1690738;84;21020;-81
2021/09/22 00:14:20;;;;;;;13.85;11.43;;;;;;;9.41;85.83;97177.80;1698417;84;20997;-81
2021/09/22 00:16:46;;;;;;;14.43;11.20;;;;;;;9.43;85.93;97177.96;1678460;84;21025;-81
2021/09/22 00:19:12;;;;;;;15.98;11.95;;;;;;;9.42;85.93;97175.05;1663441;84;20991;-81
2021/09/22 00:21:38;;;;;;;13.43;11.73;;;;;;;9.36;85.90;97167.89;1656460;84;21091;-81
2021/09/22 00:24:04;;;;;;;14.55;11.70;;;;;;;9.33;86.02;97174.69;1686028;84;21055;-81
2021/09/22 00:26:30;;;;;;;16.15;12.35;;;;;;;9.24;86.00;97180.78;1697734;84;21055;-81
2021/09/22 00:28:56;;;;;;;15.60;13.08;;;;;;;9.27;86.27;97179.17;1676861;84;20964;-81
2021/09/22 00:31:21;;;;;;;15.68;12.58;;;;;;;9.26;86.34;97181.44;1699770;84;20999;-81
2021/09/22 00:33:47;;;;;;;16.02;13.83;;;;;;;9.21;86.36;97176.72;1685850;84;21135;-81
2021/09/22 00:36:13;;;;;;;13.75;12.20;;;;;;;9.16;86.58;97179.45;1693667;83;21125;-81
2021/09/22 00:38:39;;;;;;;15.72;11.90;;;;;;;9.14;86.71;97181.39;1679871;84;21521;-81
2021/09/22 00:41:04;;;;;;;13.78;11.83;;;;;;;9.14;86.83;97175.72;1671070;84;21009;-81
2021/09/22 00:43:30;;;;;;;22.00;16.52;;;;;;;9.17;87.01;97181.08;1669748;84;20961;-81
2021/09/22 00:46:00;;;;;;;28.47;17.67;;;;;;;9.14;86.75;97183.98;1665487;85;21047;-81
2021/09/22 00:48:26;;;;;;;17.98;14.43;;;;;;;9.14;86.93;97169.24;1671538;84;21012;-81
2021/09/22 00:50:51;;;;;;;17.02;13.22;;;;;;;9.18;87.19;97169.26;1650461;85;21034;-81
2021/09/22 00:53:17;;;;;;;17.95;13.50;;;;;;;9.19;87.07;97163.11;1682324;84;21100;-80
2021/09/22 00:55:44;;;;;;;16.60;13.38;;;;;;;9.23;87.23;97155.34;1661001;84;20998;-81
2021/09/22 00:58:10;;;;;;;20.00;15.72;;;;;;;9.24;87.01;97151.78;1699864;84;21036;-81
2021/09/22 01:00:37;;;;;;;19.30;15.53;;;;;;;9.28;87.09;97144.04;1674836;84;21073;-81
2021/09/22 01:03:06;;;;;;;17.05;14.03;;;;;;;9.24;86.87;97141.41;1690516;83;21212;-81
2021/09/22 01:05:33;;;;;;;18.12;15.43;;;;;;;9.19;86.98;97143.66;1646350;86;21065;-81
2021/09/22 01:07:59;;;;;;;16.48;13.93;;;;;;;9.15;87.02;97137.64;1674850;85;21545;-81
2021/09/22 01:10:25;;;;;;;15.48;13.65;;;;;;;9.14;87.22;97129.54;1669194;83;21139;-80
2021/09/22 01:12:51;;;;;;;14.93;12.47;;;;;;;9.19;87.42;97129.39;1695607;84;21464;-81
2021/09/22 01:15:27;;;;;;;17.27;13.35;;;;;;;9.20;87.47;97129.72;1690351;83;21017;-81
2021/09/22 01:17:53;;;;;;;14.83;12.80;;;;;;;9.17;87.26;97126.14;1676274;84;21530;-81
2021/09/22 01:20:19;;;;;;;15.70;13.35;;;;;;;9.13;87.31;97124.03;1698387;84;20977;-81
2021/09/22 01:22:45;;;;;;;14.95;13.35;;;;;;;9.07;87.49;97120.25;1702551;84;21111;-81
2021/09/22 01:25:12;;;;;;;13.45;12.00;;;;;;;9.07;87.67;97117.66;1697789;84;21527;-81
2021/09/22 01:27:59;;;;;;;11.35;10.08;;;;;;;9.07;87.61;97109.07;1683297;84;21072;-81
2021/09/22 01:30:25;;;;;;;11.15;9.95;;;;;;;9.14;87.79;97110.91;1670135;85;21039;-81
2021/09/22 01:32:58;;;;;;;13.38;9.98;;;;;;;9.14;87.69;97108.31;1684804;84;21451;-81
2021/09/22 01:35:24;;;;;;;11.50;9.95;;;;;;;9.06;87.55;97107.45;1665527;84;21092;-81
2021/09/22 01:37:50;;;;;;;11.28;9.55;;;;;;;8.99;87.67;97099.48;1684365;83;21031;-81
2021/09/22 01:40:16;;;;;;;10.40;9.30;;;;;;;8.94;88.04;97102.52;1676427;84;21046;-81
2021/09/22 01:42:42;;;;;;;9.55;7.40;;;;;;;8.96;88.10;97110.16;1692340;84;21082;-80
2021/09/22 01:45:12;;;;;;;9.10;8.20;;;;;;;8.97;88.71;97103.53;1687570;84;20985;-81
2021/09/22 01:47:38;;;;;;;10.58;9.48;;;;;;;8.94;88.29;97099.11;1696707;84;21475;-81
2021/09/22 01:50:09;;;;;;;10.40;9.13;;;;;;;8.93;88.41;97109.15;1675724;84;21073;-81
2021/09/22 01:52:35;;;;;;;11.37;9.70;;;;;;;8.91;88.48;97104.13;1664100;84;21477;-81
2021/09/22 01:55:01;;;;;;;9.98;8.88;;;;;;;8.87;88.45;97098.92;1658265;85;21098;-81
2021/09/22 01:57:27;;;;;;;11.10;9.43;;;;;;;8.91;88.58;97100.72;1688910;84;21040;-81
2021/09/22 01:59:52;;;;;;;10.48;9.38;;;;;;;8.87;89.13;97091.64;1675985;84;21112;-81
2021/09/22 02:02:18;;;;;;;11.48;9.28;;;;;;;8.83;88.98;97089.84;1672561;83;21042;-81
2021/09/22 02:04:44;;;;;;;12.53;9.70;;;;;;;8.84;89.15;97082.39;1678692;84;21050;-81
2021/09/22 02:07:09;;;;;;;8.33;7.50;;;;;;;8.87;89.13;97079.97;1692163;84;21012;-80
2021/09/22 02:09:35;;;;;;;9.65;8.23;;;;;;;8.89;89.12;97079.33;1681556;84;21065;-81
2021/09/22 02:12:01;;;;;;;8.63;7.72;;;;;;;8.94;89.17;97074.48;1695092;84;21413;-81
2021/09/22 02:14:27;;;;;;;8.50;6.90;;;;;;;8.98;89.14;97074.05;1687366;84;21078;-81
2021/09/22 02:16:53;;;;;;;9.08;7.50;;;;;;;9.01;89.20;97071.63;1692618;84;21207;-81
2021/09/22 02:19:21;;;;;;;8.90;8.03;;;;;;;8.97;89.06;97063.35;1699646;83;21053;-81
2021/09/22 02:21:46;;;;;;;9.05;7.12;;;;;;;8.93;89.16;97065.91;1695366;83;21016;-80
2021/09/22 02:24:12;;;;;;;7.65;6.85;;;;;;;8.92;89.34;97055.20;1636126;86;21590;-81
2021/09/22 02:26:38;;;;;;;7.87;7.03;;;;;;;8.92;88.94;97058.28;1653497;84;21032;-81
2021/09/22 02:29:04;;;;;;;7.35;6.53;;;;;;;8.96;89.11;97057.84;1685417;84;21015;-81
2021/09/22 02:31:30;;;;;;;8.55;7.70;;;;;;;9.01;89.10;97054.78;1691857;83;21259;-81
2021/09/22 02:33:56;;;;;;;8.48;7.17;;;;;;;8.97;88.93;97051.69;1677405;84;21493;-81
2021/09/22 02:36:21;;;;;;;8.45;7.42;;;;;;;8.99;89.21;97057.53;1694148;84;21094;-81
2021/09/22 02:38:48;;;;;;;7.55;6.75;;;;;;;8.96;89.17;97048.77;1692591;84;21112;-81
2021/09/22 02:41:13;;;;;;;7.92;6.40;;;;;;;8.97;89.26;97054.28;1687459;84;21033;-81
2021/09/22 02:43:39;;;;;;;7.47;6.20;;;;;;;8.96;89.17;97046.66;1670117;84;21021;-81
2021/09/22 02:46:05;;;;;;;7.33;6.58;;;;;;;8.99;89.21;97041.16;1687796;83;21080;-81
2021/09/22 02:48:30;;;;;;;6.15;5.55;;;;;;;9.01;89.23;97038.73;1670126;84;21045;-81
2021/09/22 02:50:56;;;;;;;10.65;7.75;;;;;;;8.99;89.11;97037.27;1666580;84;21044;-81
2021/09/22 02:53:22;;;;;;;8.78;6.75;;;;;;;8.97;89.25;97035.33;1680203;84;21055;-81
2021/09/22 02:55:48;;;;;;;6.62;5.90;;;;;;;8.97;89.42;97037.92;1685811;84;21095;-81
2021/09/22 02:58:14;;;;;;;6.50;5.90;;;;;;;8.93;89.28;97030.10;1694535;84;21024;-81
2021/09/22 03:00:40;;;;;;;6.30;5.70;;;;;;;8.89;89.21;97027.50;1676681;84;22133;-81
2021/09/22 03:03:06;;;;;;;7.20;5.00;;;;;;;8.93;89.33;97032.69;1699725;84;21033;-81
2021/09/22 03:05:32;;;;;;;6.40;5.67;;;;;;;8.95;89.38;97032.89;1679936;84;21271;-81
2021/09/22 03:07:57;;;;;;;6.97;5.75;;;;;;;8.97;89.41;97032.73;1700357;84;21380;-81
2021/09/22 03:10:23;;;;;;;6.10;5.30;;;;;;;9.01;89.27;97040.52;1678853;84;20977;-81
2021/09/22 03:12:49;;;;;;;6.25;5.50;;;;;;;8.98;88.98;97031.28;1657865;85;21015;-81
2021/09/22 03:15:15;;;;;;;5.40;4.90;;;;;;;9.00;89.09;97036.30;1696512;84;21054;-81
2021/09/22 03:17:43;;;;;;;6.42;5.83;;;;;;;9.01;88.93;97033.55;1672708;84;21000;-81
2021/09/22 03:20:10;;;;;;;6.45;5.37;;;;;;;9.02;88.62;97026.11;1689718;83;21040;-81
2021/09/22 03:22:36;;;;;;;6.75;5.53;;;;;;;9.09;88.71;97021.58;1627046;87;22196;-81
2021/09/22 03:25:04;;;;;;;6.37;5.70;;;;;;;9.11;88.47;97017.05;1633707;86;21052;-80
2021/09/22 03:27:30;;;;;;;7.50;5.35;;;;;;;9.07;88.02;97011.85;1702053;83;21020;-81
2021/09/22 03:29:56;;;;;;;7.17;6.10;;;;;;;9.04;88.06;97007.80;1695918;83;21043;-81
2021/09/22 03:32:21;;;;;;;7.20;6.35;;;;;;;9.02;87.96;97006.66;1687459;84;21422;-81
2021/09/22 03:34:47;;;;;;;6.78;5.92;;;;;;;9.02;87.92;97013.14;1673779;84;21073;-81
2021/09/22 03:37:13;;;;;;;6.12;5.45;;;;;;;9.08;87.95;97019.95;1660866;85;21075;-81
2021/09/22 03:39:39;;;;;;;6.45;5.83;;;;;;;9.06;87.72;97011.05;1656993;85;21127;-81
2021/09/22 03:42:05;;;;;;;6.62;5.90;;;;;;;9.02;87.60;97014.44;1678437;84;21542;-81
2021/09/22 03:44:30;;;;;;;6.50;5.60;;;;;;;9.02;87.73;97017.52;1682608;84;20996;-81
2021/09/22 03:46:57;;;;;;;8.28;7.42;;;;;;;8.95;87.22;97016.53;1698987;84;21068;-81
2021/09/22 03:49:22;;;;;;;10.20;7.58;;;;;;;8.87;87.10;97008.22;1701287;84;20993;-81
2021/09/22 03:51:48;;;;;;;8.05;7.08;;;;;;;8.85;87.26;97008.86;1680656;83;21438;-81
2021/09/22 03:54:14;;;;;;;7.00;6.30;;;;;;;8.86;87.38;97006.59;1675898;84;21039;-81
2021/09/22 03:56:40;;;;;;;7.33;5.87;;;;;;;8.91;87.53;97006.13;1614983;87;21047;-81
2021/09/22 03:59:06;;;;;;;6.45;5.80;;;;;;;8.94;87.56;97006.62;1672021;84;21120;-81
2021/09/22 04:01:32;;;;;;;6.25;5.25;;;;;;;8.97;87.65;97000.34;1684837;84;21345;-82
2021/09/22 04:03:57;;;;;;;6.15;5.22;;;;;;;9.01;87.85;97005.53;1691897;84;21014;-81
2021/09/22 04:06:23;;;;;;;5.25;4.75;;;;;;;9.04;87.53;97002.62;1691918;84;21022;-81
2021/09/22 04:08:50;;;;;;;5.75;4.85;;;;;;;9.08;87.40;97008.30;1680128;84;21042;-81
2021/09/22 04:11:17;;;;;;;5.70;5.03;;;;;;;9.07;87.03;97005.37;1691853;83;21154;-81
2021/09/22 04:13:43;;;;;;;6.28;5.62;;;;;;;9.07;87.10;97013.16;1670798;84;20965;-81
2021/09/22 04:16:09;;;;;;;6.03;5.40;;;;;;;9.10;87.36;97007.65;1693030;84;21020;-81
2021/09/22 04:18:36;;;;;;;7.22;5.90;;;;;;;9.13;87.37;97007.36;1699516;84;20997;-81
2021/09/22 04:21:02;;;;;;;6.25;5.40;;;;;;;9.13;87.22;97005.58;1688647;84;21038;-81
2021/09/22 04:23:28;;;;;;;6.15;5.37;;;;;;;9.14;87.21;97007.69;1676627;84;21482;-81
2021/09/22 04:25:54;;;;;;;5.83;5.25;;;;;;;9.13;87.05;97006.88;1675772;84;20982;-81
2021/09/22 04:28:20;;;;;;;6.53;5.83;;;;;;;9.18;87.11;97007.69;1692978;83;20977;-81
2021/09/22 04:30:46;;;;;;;7.25;5.90;;;;;;;9.17;86.95;97010.77;1691710;84;20954;-81
2021/09/22 04:33:12;;;;;;;6.45;5.60;;;;;;;9.12;86.82;97006.55;1674082;84;21032;-81
2021/09/22 04:35:37;;;;;;;7.65;6.60;;;;;;;9.12;86.85;97007.03;1648706;84;21053;-81
2021/09/22 04:38:05;;;;;;;8.40;6.53;;;;;;;9.13;86.86;97008.66;1686496;84;21005;-81
2021/09/22 04:40:31;;;;;;;7.90;6.17;;;;;;;9.05;86.38;97012.02;1641557;85;21455;-81
2021/09/22 04:42:57;;;;;;;6.17;5.58;;;;;;;9.07;86.58;97007.97;1639005;85;21054;-81
2021/09/22 04:45:25;;;;;;;6.65;5.72;;;;;;;9.03;86.33;97016.06;1628457;86;21006;-81
2021/09/22 04:47:54;;;;;;;8.00;6.28;;;;;;;8.92;86.06;97015.52;1625966;86;21126;-81
2021/09/22 04:50:20;;;;;;;6.10;4.75;;;;;;;8.89;86.52;97009.36;1643027;86;21443;-81
2021/09/22 04:52:46;;;;;;;5.53;4.22;;;;;;;8.88;86.52;97005.14;1638673;86;21004;-81
2021/09/22 04:55:12;;;;;;;6.37;4.97;;;;;;;8.88;86.52;97011.63;1635801;87;20998;-81
2021/09/22 04:57:39;;;;;;;6.15;5.30;;;;;;;8.88;86.55;97011.63;1636315;87;21031;-81
2021/09/22 05:00:06;;;;;;;6.97;5.25;;;;;;;8.86;86.54;97017.45;1624208;87;21075;-81
2021/09/22 05:02:31;;;;;;;6.33;5.53;;;;;;;8.87;86.68;97013.89;1613608;86;21015;-81
2021/09/22 05:04:57;;;;;;;7.05;6.12;;;;;;;8.86;86.78;97019.55;1623358;87;21005;-81
2021/09/22 05:07:23;;;;;;;8.85;7.20;;;;;;;8.80;86.66;97030.55;1670473;85;21068;-81
2021/09/22 05:09:48;;;;;;;7.45;6.47;;;;;;;8.76;86.81;97027.91;1668106;85;21095;-81
2021/09/22 05:12:14;;;;;;;7.92;6.90;;;;;;;8.79;87.09;97032.81;1654807;84;21379;-81
2021/09/22 05:14:40;;;;;;;7.83;6.17;;;;;;;8.79;86.88;97031.52;1691244;83;21042;-81
2021/09/22 05:17:06;;;;;;;7.50;6.22;;;;;;;8.83;87.14;97023.76;1683287;84;21043;-81
2021/09/22 05:19:32;;;;;;;6.75;5.40;;;;;;;8.94;87.37;97028.64;1674519;84;20981;-81
2021/09/22 05:21:58;;;;;;;6.90;5.92;;;;;;;9.02;87.70;97022.70;1674996;84;20989;-81
2021/09/22 05:24:24;;;;;;;6.80;5.75;;;;;;;9.06;87.62;97027.08;1699642;84;21069;-81
2021/09/22 05:26:49;;;;;;;8.20;6.30;;;;;;;9.07;87.55;97024.81;1661655;84;21095;-81
2021/09/22 05:29:15;;;;;;;6.83;6.12;;;;;;;9.10;87.52;97025.31;1672275;84;21242;-81
2021/09/22 05:31:41;;;;;;;8.53;5.90;;;;;;;9.11;87.28;97031.30;1687042;84;21163;-81
2021/09/22 05:34:07;;;;;;;8.50;6.35;;;;;;;9.19;87.55;97036.05;1663090;84;21063;-81
2021/09/22 05:36:33;;;;;;;7.28;5.87;;;;;;;9.26;87.63;97032.33;1674472;84;21348;-81
2021/09/22 05:38:59;;;;;;;6.28;5.30;;;;;;;9.31;87.52;97036.58;1691300;84;21035;-81
2021/09/22 05:41:24;;;;;;;7.35;6.10;;;;;;;9.25;86.83;97034.60;1682704;84;21080;-82
2021/09/22 05:43:50;;;;;;;5.22;3.87;;;;;;;9.17;86.96;97033.29;1688625;84;21556;-81
2021/09/22 05:46:16;;;;;;;4.35;3.83;;;;;;;9.10;86.26;97032.27;1663798;84;21073;-81
2021/09/22 05:48:42;;;;;;;5.03;3.77;;;;;;;9.06;86.53;97034.38;1696686;84;21044;-81
2021/09/22 05:51:08;;;;;;;3.20;2.80;;;;;;;9.08;86.55;97037.63;1677362;84;21000;-81
2021/09/22 05:53:34;;;;;;;3.92;3.52;;;;;;;9.05;86.36;97035.83;1676190;83;21016;-81
2021/09/22 05:56:00;;;;;;;3.55;2.87;;;;;;;9.11;86.80;97037.33;1671637;83;21381;-81
2021/09/22 05:58:25;;;;;;;3.33;3.02;;;;;;;9.18;86.88;97042.20;1655857;84;21029;-81
2021/09/22 06:00:57;;;;;;;4.78;3.17;;;;;;;9.22;86.71;97043.51;1673460;84;21013;-81
2021/09/22 06:03:20;;;;;;;3.80;3.20;;;;;;;9.22;86.77;97043.99;1697128;84;21017;-81
2021/09/22 06:05:46;;;;;;;5.10;3.30;;;;;;;9.26;86.79;97046.59;1684287;83;21063;-81
2021/09/22 06:08:12;;;;;;;3.55;2.98;;;;;;;9.29;86.86;97046.30;1680891;84;20996;-81
2021/09/22 06:10:38;;;;;;;3.52;2.62;;;;;;;9.31;86.80;97041.28;1678599;85;21008;-81
2021/09/22 06:13:04;;;;;;;3.02;2.72;;;;;;;9.32;86.78;97045.50;1682217;84;20996;-81
2021/09/22 06:15:30;;;;;;;2.40;1.90;;;;;;;9.31;86.40;97044.36;1669981;84;21021;-81
2021/09/22 06:17:56;;;;;;;3.15;2.20;;;;;;;9.22;86.08;97041.41;1672701;84;21496;-81
2021/09/22 06:20:22;;;;;;;2.87;2.47;;;;;;;9.24;85.85;97045.95;1689624;84;20996;-81
2021/09/22 06:22:47;;;;;;;3.42;2.20;;;;;;;9.28;86.04;97045.49;1670618;84;21008;-81
2021/09/22 06:25:14;;;;;;;3.62;3.15;;;;;;;9.32;86.47;97042.91;1677402;83;21081;-81
2021/09/22 06:27:40;;;;;;;4.80;3.40;;;;;;;9.38;86.40;97045.34;1652857;85;21119;-81
2021/09/22 06:30:07;;;;;;;3.42;2.90;;;;;;;9.44;86.53;97047.81;1664422;84;21504;-80
2021/09/22 06:32:35;;;;;;;4.50;3.65;;;;;;;9.39;85.44;97045.67;1663305;84;21414;-81
2021/09/22 06:35:03;;;;;;;5.08;3.80;;;;;;;9.40;85.48;97052.97;1692757;83;21495;-81
2021/09/22 06:37:29;;;;;;;4.17;3.52;;;;;;;9.41;85.37;97057.18;1673591;83;21108;-81
2021/09/22 06:39:55;;;;;;;4.40;3.77;;;;;;;9.43;85.59;97057.34;1647759;84;21004;-81
2021/09/22 06:42:20;;;;;;;4.08;3.55;;;;;;;9.43;85.87;97064.31;1675401;84;21431;-80
2021/09/22 06:44:46;;;;;;;5.45;4.67;;;;;;;9.38;85.17;97062.20;1689287;84;21044;-81
2021/09/22 06:47:13;;;;;;;4.20;3.50;;;;;;;9.29;85.43;97058.78;1676451;84;20993;-80
2021/09/22 06:49:38;;;;;;;4.30;3.55;;;;;;;9.26;85.29;97063.45;1699998;83;21002;-81
2021/09/22 06:52:04;;;;;;;6.15;3.65;;;;;;;9.24;84.75;97062.80;1664045;85;21024;-81
2021/09/22 06:54:32;;;;;;;3.40;3.10;;;;;;;9.19;84.76;97063.77;1665138;84;21055;-80
2021/09/22 06:56:58;;;;;;;4.95;3.85;;;;;;;9.17;85.14;97065.70;1671957;84;21076;-81
2021/09/22 06:59:23;;;;;;;4.58;3.30;;;;;;;9.16;85.16;97063.59;1687625;84;21037;-80
2021/09/22 07:01:49;;;;;;;6.22;3.92;;;;;;;9.13;85.35;97069.58;1681862;84;21068;-80
2021/09/22 07:04:15;;;;;;;5.60;4.10;;;;;;;9.15;85.68;97066.34;1695688;84;21073;-81
2021/09/22 07:06:41;;;;;;;5.80;3.90;;;;;;;9.14;85.15;97069.91;1697250;84;21550;-80
2021/09/22 07:09:06;;;;;;;5.62;3.72;;;;;;;9.12;85.22;97068.77;1691564;83;21092;-81
2021/09/22 07:11:32;;;;;;;4.30;3.62;;;;;;;9.03;85.00;97069.69;1678724;84;20985;-80
2021/09/22 07:13:58;;;;;;;4.65;3.70;;;;;;;8.97;84.95;97069.83;1682624;84;21129;-80
2021/09/22 07:16:23;;;;;;;6.65;4.20;;;;;;;8.98;85.70;97074.05;1691511;84;21447;-80
2021/09/22 07:18:49;;;;;;;5.40;4.12;;;;;;;9.01;85.55;97071.14;1699865;83;21005;-80
2021/09/22 07:21:16;;;;;;;6.00;3.77;;;;;;;9.03;84.93;97072.28;1691377;83;21121;-80
2021/09/22 07:23:42;;;;;;;4.85;4.15;;;;;;;8.96;84.74;97072.09;1666354;84;21427;-81
2021/09/22 07:26:07;;;;;;;6.03;4.20;;;;;;;9.02;85.46;97079.73;1683428;84;21072;-81
2021/09/22 07:28:34;;;;;;;9.13;5.67;;;;;;;9.02;84.68;97079.73;1669340;84;21345;-80
2021/09/22 07:31:00;;;;;;;7.33;5.35;;;;;;;8.91;84.93;97080.80;1697022;84;21487;-81
2021/09/22 07:33:26;;;;;;;8.70;6.30;;;;;;;8.96;85.85;97079.06;1694009;83;21019;-80
2021/09/22 07:35:53;;;;;;;9.00;6.70;;;;;;;9.04;86.28;97079.09;1674793;84;21139;-81
2021/09/22 07:38:19;;;;;;;8.40;6.25;;;;;;;9.17;86.12;97077.37;1675741;84;21010;-80
2021/09/22 07:40:45;;;;;;;8.73;6.22;;;;;;;9.19;85.02;97080.13;1670131;84;21443;-80
2021/09/22 07:43:11;;;;;;;7.62;6.65;;;;;;;9.22;85.33;97085.48;1703479;84;21056;-81
2021/09/22 07:45:37;;;;;;;9.80;7.55;;;;;;;9.21;85.55;97083.86;1683561;84;21055;-80
2021/09/22 07:48:04;;;;;;;9.05;7.62;;;;;;;9.23;85.49;97085.81;1703413;84;21446;-81
2021/09/22 07:50:30;;;;;;;9.05;7.17;;;;;;;9.23;85.62;97088.41;1709491;84;21073;-81
2021/09/22 07:52:55;;;;;;;9.88;7.87;;;;;;;9.18;84.87;97091.47;1699060;84;21017;-80
2021/09/22 07:55:21;;;;;;;9.35;7.28;;;;;;;9.19;85.54;97100.06;1658008;84;21080;-80
2021/09/22 07:57:48;;;;;;;9.95;7.72;;;;;;;9.26;86.04;97090.19;1675730;84;21034;-81
2021/09/22 08:00:15;;;;;;;8.88;7.72;;;;;;;9.36;86.20;97092.67;1659422;85;21956;-81
2021/09/22 08:02:41;;;;;;;8.00;7.10;;;;;;;9.48;86.36;97096.62;1663207;85;21500;-80
2021/09/22 08:05:08;;;;;;;10.23;8.00;;;;;;;9.53;85.99;97101.33;1671704;83;21072;-80
2021/09/22 08:07:34;;;;;;;10.60;7.75;;;;;;;9.56;86.29;97102.30;1695555;84;21319;-81
2021/09/22 08:10:00;;;;;;;10.18;7.40;;;;;;;9.56;85.68;97103.59;1674292;83;21513;-80
2021/09/22 08:12:25;;;;;;;8.85;7.83;;;;;;;9.60;85.77;97106.23;1681821;84;21108;-80
2021/09/22 08:14:51;;;;;;;7.92;6.92;;;;;;;9.48;85.24;97108.77;1659493;84;21127;-80
2021/09/22 08:17:18;;;;;;;8.90;7.25;;;;;;;9.44;85.41;97108.28;1647667;84;21399;-80
2021/09/22 08:19:45;;;;;;;10.20;8.13;;;;;;;9.45;85.24;97118.98;1695867;83;21087;-80
2021/09/22 08:22:10;;;;;;;10.48;8.45;;;;;;;9.48;85.68;97119.16;1702223;84;21410;-80
2021/09/22 08:24:37;;;;;;;9.75;7.62;;;;;;;9.59;86.16;97122.25;1696691;83;21078;-80
2021/09/22 08:27:04;;;;;;;8.35;7.40;;;;;;;9.70;85.02;97113.86;1665615;84;21047;-80
2021/09/22 08:29:33;;;;;;;8.23;7.35;;;;;;;9.67;84.65;97115.48;1693193;83;20983;-80
2021/09/22 08:31:59;;;;;;;7.47;5.85;;;;;;;9.67;85.15;97116.78;1690800;84;21067;-80
2021/09/22 08:34:25;;;;;;;6.95;6.25;;;;;;;9.71;84.43;97113.70;1701199;83;22210;-80
2021/09/22 08:36:51;;;;;;;7.00;6.30;;;;;;;9.78;84.51;97113.41;1664464;84;21076;-80
2021/09/22 08:39:17;;;;;;;8.08;5.90;;;;;;;9.85;84.73;97109.20;1652571;85;21032;-80
2021/09/22 08:41:43;;;;;;;7.90;6.80;;;;;;;9.85;84.42;97113.58;1683074;83;21431;-80
2021/09/22 08:44:11;;;;;;;9.48;7.08;;;;;;;9.80;84.43;97117.95;1676266;84;21004;-80
2021/09/22 08:46:41;;;;;;;8.95;7.42;;;;;;;9.71;84.19;97120.19;1669364;85;21092;-80
2021/09/22 08:49:07;;;;;;;7.85;7.05;;;;;;;9.75;84.79;97110.30;1677593;84;21072;-80
2021/09/22 08:51:33;;;;;;;7.97;7.12;;;;;;;9.82;84.39;97116.01;1661474;84;20985;-80
2021/09/22 08:53:59;;;;;;;9.53;7.72;;;;;;;9.86;83.49;97117.80;1683738;84;21578;-80
2021/09/22 08:56:25;;;;;;;8.33;7.42;;;;;;;9.86;83.78;97121.20;1696902;84;21027;-81
2021/09/22 08:58:51;;;;;;;8.20;7.20;;;;;;;9.81;83.07;97123.47;1670311;84;21081;-80
2021/09/22 09:01:20;;;;;;;10.82;7.78;;;;;;;9.83;83.78;97127.20;1676604;84;21144;-80
2021/09/22 09:03:46;;;;;;;10.40;7.10;;;;;;;9.90;83.13;97124.28;1681589;84;21031;-80
2021/09/22 09:06:24;;;;;;;9.95;6.80;;;;;;;10.01;84.03;97117.50;1679376;83;21105;-80
2021/09/22 09:08:55;;;;;;;9.28;7.55;;;;;;;10.11;83.55;97123.37;1676066;84;21077;-80
2021/09/22 09:11:34;;;;;;;7.20;6.45;;;;;;;10.13;83.90;97115.41;1682255;84;21105;-81
2021/09/22 09:14:05;;;;;;;8.43;7.28;;;;;;;10.11;83.33;97122.07;1684659;84;21005;-80
2021/09/22 09:16:44;;;;;;;9.20;7.55;;;;;;;10.12;84.14;97121.58;1667087;85;21048;-80
2021/09/22 09:19:17;;;;;;;9.53;7.28;;;;;;;10.11;84.15;97129.05;1651921;86;21063;-80
2021/09/22 09:21:59;;;;;;;8.65;6.75;;;;;;;10.04;83.54;97128.86;1647908;86;22452;-80
2021/09/22 09:24:34;;;;;;;9.15;7.67;;;;;;;10.06;83.94;97130.00;1695851;84;21027;-80
2021/09/22 09:27:01;;;;;;;12.45;7.45;;;;;;;10.06;84.16;97133.41;1673644;84;21471;-81
2021/09/22 09:29:26;;;;;;;9.70;8.65;;;;;;;9.99;84.15;97136.33;1666741;84;21095;-80
2021/09/22 09:32:14;;;;;;;12.78;9.05;;;;;;;9.96;84.57;97136.65;1658038;84;21053;-80
2021/09/22 09:35:05;;;;;;;15.65;8.98;;;;;;;9.93;84.71;97131.30;1692731;84;20991;-80
2021/09/22 09:37:36;;;;;;;9.18;8.23;;;;;;;9.86;83.76;97128.18;1693160;84;21016;-80
2021/09/22 09:40:28;;;;;;;9.23;8.25;;;;;;;9.78;83.82;97123.80;1661578;84;22056;-81
2021/09/22 09:43:00;;;;;;;11.55;8.95;;;;;;;9.81;84.00;97123.95;1642144;84;21067;-80
2021/09/22 09:45:43;;;;;;;11.90;9.85;;;;;;;9.79;84.31;97129.31;1681298;84;21044;-80
2021/09/22 09:48:17;;;;;;;9.45;8.33;;;;;;;9.79;84.36;97126.72;1698506;83;21072;-80
2021/09/22 09:50:52;;;;;;;9.08;7.55;;;;;;;9.84;84.47;97124.94;1694055;84;21492;-81
2021/09/22 09:53:29;;;;;;;9.70;7.67;;;;;;;9.96;84.51;97117.66;1683943;83;21019;-80
2021/09/22 09:56:00;;;;;;;10.05;8.40;;;;;;;10.00;84.97;97122.86;1653748;84;21008;-81
2021/09/22 09:58:41;;;;;;;9.50;8.50;;;;;;;10.01;84.00;97129.19;1669406;84;21101;-80
2021/09/22 10:01:07;;;;;;;8.55;7.67;;;;;;;9.96;83.79;97124.97;1665468;84;21035;-80
2021/09/22 10:03:33;;;;;;;7.97;7.15;;;;;;;9.89;83.55;97128.67;1675957;83;21013;-80
2021/09/22 10:05:59;;;;;;;9.80;8.28;;;;;;;9.80;83.68;97135.31;1693971;84;21108;-80
2021/09/22 10:08:28;;;;;;;10.48;8.73;;;;;;;9.72;84.49;97133.48;1677354;84;21112;-81
2021/09/22 10:10:55;;;;;;;9.85;8.83;;;;;;;9.77;84.71;97132.55;1664235;84;21052;-81
2021/09/22 10:13:22;;;;;;;11.08;9.20;;;;;;;9.79;84.45;97137.09;1693794;84;21033;-80
2021/09/22 10:15:48;;;;;;;12.28;9.00;;;;;;;9.85;85.25;97140.83;1673356;84;21048;-80
2021/09/22 10:18:16;;;;;;;10.03;9.03;;;;;;;9.88;85.26;97143.91;1697412;84;21012;-80
2021/09/22 10:20:44;;;;;;;10.15;7.90;;;;;;;9.85;84.83;97132.56;1649819;85;21122;-80
2021/09/22 10:23:11;;;;;;;8.10;7.28;;;;;;;9.94;85.08;97141.19;1696284;84;21011;-80
2021/09/22 10:25:37;;;;;;;8.58;7.47;;;;;;;9.91;84.50;97141.00;1688272;84;21468;-80
2021/09/22 10:28:03;;;;;;;9.43;8.23;;;;;;;9.99;85.18;97139.41;1679966;84;21073;-80
2021/09/22 10:30:39;;;;;;;8.78;7.92;;;;;;;10.05;85.02;97133.56;1690541;84;21004;-80
2021/09/22 10:33:06;;;;;;;9.53;8.45;;;;;;;10.16;85.12;97138.46;1671238;84;21061;-80
2021/09/22 10:35:35;;;;;;;10.05;8.58;;;;;;;10.27;85.18;97135.59;1668567;84;21027;-80
2021/09/22 10:38:28;;;;;;;10.88;8.20;;;;;;;10.32;84.86;97146.79;1681715;84;21384;-80
2021/09/22 10:41:01;;;;;;;8.60;7.70;;;;;;;10.42;85.34;97150.05;1683578;84;21020;-80
2021/09/22 10:43:30;;;;;;;8.48;7.25;;;;;;;10.50;85.52;97147.45;1692175;83;21328;-80
2021/09/22 10:46:10;;;;;;;8.43;7.28;;;;;;;10.65;86.08;97145.02;1677165;84;21375;-80
2021/09/22 10:48:54;;;;;;;9.13;7.45;;;;;;;10.77;85.29;97142.41;1675020;84;21527;-81
2021/09/22 10:51:32;;;;;;;8.00;6.85;;;;;;;10.87;85.96;97139.62;1685193;84;21090;-80
2021/09/22 10:54:16;;;;;;;9.13;7.90;;;;;;;10.86;85.21;97139.30;1681027;84;21481;-81
2021/09/22 10:56:55;;;;;;;8.45;7.40;;;;;;;10.77;84.19;97140.63;1671750;84;21133;-80
2021/09/22 10:59:29;;;;;;;8.48;7.45;;;;;;;10.72;84.80;97143.37;1687639;84;21044;-80
2021/09/22 11:01:55;;;;;;;9.65;7.22;;;;;;;10.69;84.04;97147.11;1684322;84;21070;-80
2021/09/22 11:04:20;;;;;;;8.55;7.28;;;;;;;10.73;84.22;97147.59;1695957;84;21056;-80
2021/09/22 11:06:51;;;;;;;8.03;7.22;;;;;;;10.75;84.25;97150.86;1693839;84;20982;-80
2021/09/22 11:09:28;;;;;;;9.38;7.65;;;;;;;10.78;84.15;97142.24;1684496;84;21009;-80
2021/09/22 11:11:59;;;;;;;9.43;8.25;;;;;;;10.86;84.55;97145.30;1671120;84;21546;-80
2021/09/22 11:14:49;;;;;;;10.10;7.70;;;;;;;10.98;84.82;97143.19;1683739;84;21073;-81
2021/09/22 11:17:25;;;;;;;10.38;8.18;;;;;;;11.05;85.25;97146.24;1674224;84;21037;-80
2021/09/22 11:19:59;;;;;;;8.98;8.05;;;;;;;11.10;84.35;97145.77;1677486;84;21053;-80
2021/09/22 11:22:30;;;;;;;9.15;8.23;;;;;;;11.09;83.19;97137.64;1670209;84;21075;-80
2021/09/22 11:25:09;;;;;;;9.43;7.65;;;;;;;11.09;83.96;97135.86;1677842;84;20992;-80
2021/09/22 11:27:37;;;;;;;9.85;7.47;;;;;;;11.08;84.41;97142.03;1683352;84;21028;-80
2021/09/22 11:30:06;;;;;;;9.60;7.42;;;;;;;10.98;83.01;97145.30;1671452;84;22245;-80
2021/09/22 11:32:43;;;;;;;8.08;6.75;;;;;;;10.89;82.46;97146.77;1691540;84;21038;-80
2021/09/22 11:35:16;;;;;;;8.23;6.05;;;;;;;10.87;83.52;97146.92;1697537;83;21325;-80
2021/09/22 11:37:53;;;;;;;10.13;7.33;;;;;;;10.94;83.55;97154.90;1654219;85;21562;-81
2021/09/22 11:40:23;;;;;;;8.03;6.80;;;;;;;10.92;83.67;97147.27;1677196;83;21483;-80